4XCWC LLHZ-LLHZ

Flight info

Callsign 4XCWC
Flight time 0h 21m
Altitude 800
Route CVFR
Aircraft C172/L-VD/A

Departure

Time 2026-04-25 11:36
Airport Herzliya Airport (LLHZ)

Arrival

Time 2026-04-25 11:57
Airport Herzliya Airport (LLHZ)
Time Latitude Longitude Altitude Speed Heading
2026-04-25 11:19 32.17874 34.83805 120 ft 0 kts 290°
2026-04-25 11:30 32.17876 34.83799 120 ft 4 kts 304°
2026-04-25 11:30 32.17888 34.83793 116 ft 0 kts
2026-04-25 11:31 32.17895 34.83798 117 ft 2 kts 45°
2026-04-25 11:31 32.17897 34.83804 118 ft 0 kts 94°
2026-04-25 11:31 32.17882 34.83851 119 ft 5 kts 78°
2026-04-25 11:31 32.17898 34.83863 123 ft 5 kts
2026-04-25 11:32 32.17899 34.83863 123 ft 0 kts 351°
2026-04-25 11:32 32.17877 34.83848 121 ft 1 kts 47°
2026-04-25 11:32 32.17879 34.83850 120 ft 0 kts 52°
2026-04-25 11:34 32.17908 34.83860 123 ft 8 kts 322°
2026-04-25 11:34 32.17962 34.83691 113 ft 46 kts 289°
2026-04-25 11:34 32.18119 34.83173 135 ft 80 kts 290°
2026-04-25 11:34 32.18465 34.82744 350 ft 82 kts
2026-04-25 11:35 32.19116 34.82967 291 ft 109 kts 19°
2026-04-25 11:35 32.19390 34.83742 538 ft 118 kts 103°
2026-04-25 11:35 32.19118 34.84691 636 ft 125 kts 114°
2026-04-25 11:35 32.18750 34.85613 683 ft 122 kts 121°
2026-04-25 11:36 32.18122 34.86201 700 ft 103 kts 198°
2026-04-25 11:36 32.17656 34.85884 725 ft 79 kts 219°
2026-04-25 11:36 32.17444 34.85419 593 ft 64 kts 280°
2026-04-25 11:36 32.17566 34.84912 482 ft 66 kts 282°
2026-04-25 11:37 32.17738 34.84391 316 ft 69 kts 289°
2026-04-25 11:37 32.17907 34.83860 134 ft 66 kts 277°
2026-04-25 11:37 32.18052 34.83374 138 ft 64 kts 290°
2026-04-25 11:37 32.18276 34.82830 222 ft 80 kts 314°
2026-04-25 11:38 32.18811 34.82736 357 ft 94 kts
2026-04-25 11:38 32.19270 34.82892 304 ft 112 kts 13°
2026-04-25 11:38 32.19743 34.83482 637 ft 111 kts 109°
2026-04-25 11:38 32.19091 34.83929 690 ft 118 kts 176°
2026-04-25 11:39 32.18279 34.84145 761 ft 125 kts 140°
2026-04-25 11:39 32.17997 34.85082 667 ft 134 kts 122°
2026-04-25 11:39 32.17592 34.84811 671 ft 97 kts 300°
2026-04-25 11:39 32.17901 34.83901 175 ft 75 kts 284°
2026-04-25 11:40 32.18000 34.83542 106 ft 63 kts 283°
2026-04-25 11:40 32.18138 34.82969 159 ft 83 kts 290°
2026-04-25 11:40 32.18543 34.82756 328 ft 87 kts
2026-04-25 11:40 32.19197 34.82971 391 ft 103 kts 35°
2026-04-25 11:41 32.19284 34.83825 512 ft 125 kts 107°
2026-04-25 11:41 32.19003 34.84819 615 ft 127 kts 105°
2026-04-25 11:41 32.18694 34.85807 649 ft 128 kts 128°
2026-04-25 11:41 32.17982 34.85885 620 ft 110 kts 226°
2026-04-25 11:42 32.17576 34.85170 545 ft 85 kts 270°
2026-04-25 11:42 32.17698 34.84531 334 ft 77 kts 284°
2026-04-25 11:42 32.17871 34.83994 162 ft 63 kts 283°
2026-04-25 11:42 32.18007 34.83533 106 ft 67 kts 290°
2026-04-25 11:43 32.18167 34.82907 162 ft 88 kts 292°
2026-04-25 11:43 32.18676 34.82767 329 ft 95 kts
2026-04-25 11:43 32.19342 34.83111 391 ft 112 kts 44°
2026-04-25 11:43 32.19345 34.84020 564 ft 125 kts 109°
2026-04-25 11:44 32.19046 34.84994 647 ft 129 kts 110°
2026-04-25 11:44 32.18583 34.85841 568 ft 119 kts 154°
2026-04-25 11:44 32.17939 34.85905 653 ft 81 kts 200°
2026-04-25 11:44 32.17596 34.85491 563 ft 71 kts 254°
2026-04-25 11:45 32.17604 34.84957 459 ft 64 kts 279°
2026-04-25 11:45 32.17726 34.84459 310 ft 63 kts 285°
2026-04-25 11:45 32.17871 34.83985 159 ft 58 kts 284°
2026-04-25 11:45 32.17999 34.83557 112 ft 61 kts 292°
2026-04-25 11:46 32.18163 34.83006 202 ft 77 kts 290°
2026-04-25 11:46 32.18593 34.82663 314 ft 94 kts
2026-04-25 11:46 32.19241 34.83022 338 ft 112 kts 29°
2026-04-25 11:46 32.19286 34.83920 492 ft 124 kts 108°
2026-04-25 11:47 32.18992 34.84883 630 ft 125 kts 108°
2026-04-25 11:47 32.18643 34.85822 749 ft 125 kts 136°
2026-04-25 11:47 32.17858 34.86067 877 ft 118 kts 186°
2026-04-25 11:47 32.17409 34.85462 783 ft 111 kts 288°
2026-04-25 11:48 32.17660 34.84658 485 ft 92 kts 286°
2026-04-25 11:48 32.17868 34.83982 169 ft 83 kts 292°
2026-04-25 11:48 32.18039 34.83429 143 ft 69 kts 293°
2026-04-25 11:48 32.18241 34.82829 188 ft 86 kts 305°
2026-04-25 11:49 32.18834 34.82875 295 ft 101 kts 15°
2026-04-25 11:49 32.19348 34.83455 461 ft 113 kts 88°
2026-04-25 11:49 32.19146 34.84400 559 ft 124 kts 109°
2026-04-25 11:49 32.18852 34.85388 617 ft 129 kts 115°
2026-04-25 11:50 32.18156 34.85819 616 ft 120 kts 189°
2026-04-25 11:50 32.17439 34.85476 515 ft 108 kts 250°
2026-04-25 11:50 32.17607 34.84717 459 ft 85 kts 295°
2026-04-25 11:50 32.17840 34.84069 210 ft 87 kts 287°
2026-04-25 11:51 32.18022 34.83483 113 ft 67 kts 290°
2026-04-25 11:51 32.18200 34.82899 178 ft 81 kts 299°
2026-04-25 11:51 32.18738 34.82833 332 ft 91 kts
2026-04-25 11:51 32.19308 34.83221 533 ft 106 kts 65°
2026-04-25 11:52 32.19190 34.84110 666 ft 119 kts 107°
2026-04-25 11:52 32.18934 34.85079 736 ft 126 kts 110°
2026-04-25 11:52 32.18504 34.85950 917 ft 115 kts 156°
2026-04-25 11:52 32.17744 34.85895 820 ft 118 kts 203°
2026-04-25 11:53 32.17417 34.85266 661 ft 80 kts 290°
2026-04-25 11:53 32.17633 34.84712 388 ft 66 kts 283°
2026-04-25 11:53 32.17797 34.84236 209 ft 57 kts 283°
2026-04-25 11:53 32.17925 34.83826 125 ft 50 kts 282°
2026-04-25 11:54 32.18061 34.83362 138 ft 73 kts 287°
2026-04-25 11:54 32.18334 34.82814 248 ft 87 kts 335°
2026-04-25 11:54 32.19648 34.83271 328 ft 101 kts
2026-04-25 11:55 32.20327 34.83518 450 ft 103 kts
2026-04-25 11:55 32.20906 34.83943 688 ft 102 kts 79°
2026-04-25 11:55 32.20698 34.84787 712 ft 116 kts 124°
2026-04-25 11:55 32.20151 34.85536 674 ft 122 kts 133°
2026-04-25 11:56 32.19363 34.85779 544 ft 122 kts 194°
2026-04-25 11:56 32.18582 34.85454 576 ft 122 kts 202°
2026-04-25 11:56 32.17846 34.85025 392 ft 112 kts 238°
2026-04-25 11:56 32.17800 34.84258 252 ft 81 kts 281°
2026-04-25 11:57 32.17955 34.83709 115 ft 58 kts 288°
2026-04-25 11:57 32.18036 34.83438 103 ft 22 kts 287°
2026-04-25 11:57 32.18051 34.83385 101 ft 5 kts 280°
2026-04-25 11:57 32.18059 34.83347 99 ft 0 kts 274°
2026-04-25 11:58 32.18054 34.83334 100 ft 2 kts 201°
2026-04-25 11:58 32.18024 34.83321 101 ft 0 kts 200°
2026-04-25 11:58 32.18019 34.83319 101 ft 0 kts 200°